Agua Dulce, California
Current Conditions -  °F | °C
As of 10:56 AM on Friday 31 Oct 2014 (Local Time) from KWJF Reporting Station
Clear Clear  
Wind Chill: 63°   Ceiling: Unl
Heat Index: 63°   Visibility: 10mi
Dew Point: 47°   Wind: 21mph
Humidity: 56%   Direction: 250°WSW
Pressure: 29.96"   Gusts: NA
Location:  34.513°N, 118.402°W
Report Text: KWJF 311756Z 25018KT 10SM CLR 17/08 A2996 RMK AO2 PK WND 24027/1705 SLP135 T01720083 10172 20122 58001
Loading
Personal Weather Stations






























Interactive Weather Map
Tropical Storm Tracking
New forecast layout! Learn more

10-Day Weather Forecast

Advertisements
Track Severe Weather on mobile